Benton City, Washington
Current Conditions -  °F | °C
As of 9:53 PM on Saturday 25 Oct 2014 (Local Time) from KPSC Reporting Station
Broken Clouds Broken Clouds  
Wind Chill: 59°   Ceiling: 11000
Heat Index: 59°   Visibility: 10mi
Dew Point: 46°   Wind: 24mph
Humidity: 62%   Direction: 240°WSW
Pressure: 29.67"   Gusts: 37mph
Location:  46.26°N, 119.49°W
Report Text: KPSC 260453Z 24021G32KT 10SM BKN110 15/08 A2967 RMK AO2 PK WND 23039/0428 SLP047 T01500078
Loading
Personal Weather Stations






























Interactive Weather Map
Tropical Storm Tracking
New forecast layout! Learn more

10-Day Weather Forecast

Advertisements
Track Severe Weather on mobile